sensor_id;sensor_type;location;lat;lon;timestamp;P1;durP1;ratioP1;P2;durP2;ratioP2
32790;SDS011;19143;59.322;14.502;2023-07-22T00:00:06;2.20;;;0.87;;
32790;SDS011;19143;59.322;14.502;2023-07-22T00:02:38;2.93;;;0.80;;
32790;SDS011;19143;59.322;14.502;2023-07-22T00:05:04;2.73;;;1.07;;
32790;SDS011;19143;59.322;14.502;2023-07-22T00:07:33;3.60;;;1.13;;
32790;SDS011;19143;59.322;14.502;2023-07-22T00:10:00;2.87;;;0.97;;
32790;SDS011;19143;59.322;14.502;2023-07-22T00:12:27;4.60;;;1.27;;
32790;SDS011;19143;59.322;14.502;2023-07-22T00:14:55;2.67;;;1.00;;
32790;SDS011;19143;59.322;14.502;2023-07-22T00:17:23;2.37;;;1.07;;
32790;SDS011;19143;59.322;14.502;2023-07-22T00:19:50;1.57;;;1.30;;
32790;SDS011;19143;59.322;14.502;2023-07-22T00:22:17;5.50;;;1.10;;
32790;SDS011;19143;59.322;14.502;2023-07-22T00:24:45;5.33;;;1.20;;
32790;SDS011;19143;59.322;14.502;2023-07-22T00:27:11;1.70;;;1.00;;
32790;SDS011;19143;59.322;14.502;2023-07-22T00:29:41;3.67;;;1.10;;
32790;SDS011;19143;59.322;14.502;2023-07-22T00:32:12;1.53;;;0.90;;
32790;SDS011;19143;59.322;14.502;2023-07-22T00:34:39;3.03;;;1.00;;
32790;SDS011;19143;59.322;14.502;2023-07-22T00:37:06;1.57;;;0.90;;
32790;SDS011;19143;59.322;14.502;2023-07-22T00:39:32;5.30;;;1.10;;
32790;SDS011;19143;59.322;14.502;2023-07-22T00:41:59;2.77;;;1.20;;
32790;SDS011;19143;59.322;14.502;2023-07-22T00:44:26;3.77;;;1.30;;
32790;SDS011;19143;59.322;14.502;2023-07-22T00:46:53;4.03;;;1.10;;
32790;SDS011;19143;59.322;14.502;2023-07-22T00:49:21;4.43;;;1.33;;
32790;SDS011;19143;59.322;14.502;2023-07-22T00:51:49;1.13;;;0.87;;
32790;SDS011;19143;59.322;14.502;2023-07-22T00:54:16;2.20;;;1.10;;
32790;SDS011;19143;59.322;14.502;2023-07-22T00:56:42;2.33;;;1.10;;
32790;SDS011;19143;59.322;14.502;2023-07-22T00:59:10;4.60;;;1.20;;
32790;SDS011;19143;59.322;14.502;2023-07-22T01:01:37;4.87;;;1.07;;
32790;SDS011;19143;59.322;14.502;2023-07-22T01:04:04;1.03;;;1.00;;
32790;SDS011;19143;59.322;14.502;2023-07-22T01:06:32;4.23;;;1.20;;
32790;SDS011;19143;59.322;14.502;2023-07-22T01:08:58;3.20;;;1.17;;
32790;SDS011;19143;59.322;14.502;2023-07-22T01:11:25;5.83;;;1.30;;
32790;SDS011;19143;59.322;14.502;2023-07-22T01:13:52;1.17;;;1.10;;
32790;SDS011;19143;59.322;14.502;2023-07-22T01:16:23;8.40;;;1.10;;
32790;SDS011;19143;59.322;14.502;2023-07-22T01:18:50;1.80;;;1.13;;
32790;SDS011;19143;59.322;14.502;2023-07-22T01:21:16;4.67;;;1.50;;
32790;SDS011;19143;59.322;14.502;2023-07-22T01:23:45;2.73;;;1.13;;
32790;SDS011;19143;59.322;14.502;2023-07-22T01:26:11;5.40;;;1.43;;
32790;SDS011;19143;59.322;14.502;2023-07-22T01:28:38;2.97;;;1.10;;
32790;SDS011;19143;59.322;14.502;2023-07-22T01:31:05;2.40;;;0.97;;
32790;SDS011;19143;59.322;14.502;2023-07-22T01:33:32;1.23;;;1.17;;
32790;SDS011;19143;59.322;14.502;2023-07-22T01:35:59;2.93;;;1.30;;
32790;SDS011;19143;59.322;14.502;2023-07-22T01:38:27;2.17;;;1.00;;
32790;SDS011;19143;59.322;14.502;2023-07-22T01:41:02;2.67;;;1.03;;
32790;SDS011;19143;59.322;14.502;2023-07-22T01:43:29;1.47;;;1.37;;
32790;SDS011;19143;59.322;14.502;2023-07-22T01:45:55;2.57;;;1.03;;
32790;SDS011;19143;59.322;14.502;2023-07-22T01:48:22;6.00;;;1.20;;
32790;SDS011;19143;59.322;14.502;2023-07-22T01:50:48;8.03;;;1.60;;
32790;SDS011;19143;59.322;14.502;2023-07-22T01:53:15;5.57;;;1.47;;
32790;SDS011;19143;59.322;14.502;2023-07-22T01:55:42;5.60;;;1.50;;
32790;SDS011;19143;59.322;14.502;2023-07-22T01:58:10;4.47;;;1.10;;
32790;SDS011;19143;59.322;14.502;2023-07-22T02:00:37;2.53;;;1.30;;
32790;SDS011;19143;59.322;14.502;2023-07-22T02:03:05;7.50;;;1.60;;
32790;SDS011;19143;59.322;14.502;2023-07-22T02:05:31;3.50;;;1.20;;
32790;SDS011;19143;59.322;14.502;2023-07-22T02:07:58;4.57;;;1.27;;
32790;SDS011;19143;59.322;14.502;2023-07-22T02:10:25;5.23;;;1.20;;
32790;SDS011;19143;59.322;14.502;2023-07-22T02:12:51;1.00;;;1.00;;
32790;SDS011;19143;59.322;14.502;2023-07-22T02:15:20;2.20;;;1.17;;
32790;SDS011;19143;59.322;14.502;2023-07-22T02:17:47;5.83;;;1.13;;
32790;SDS011;19143;59.322;14.502;2023-07-22T02:20:13;8.13;;;1.30;;
32790;SDS011;19143;59.322;14.502;2023-07-22T02:22:40;2.57;;;1.20;;
32790;SDS011;19143;59.322;14.502;2023-07-22T02:25:08;3.00;;;1.07;;
32790;SDS011;19143;59.322;14.502;2023-07-22T02:27:35;7.53;;;1.30;;
32790;SDS011;19143;59.322;14.502;2023-07-22T02:30:02;2.47;;;1.10;;
32790;SDS011;19143;59.322;14.502;2023-07-22T02:32:31;2.10;;;1.00;;
32790;SDS011;19143;59.322;14.502;2023-07-22T02:34:58;1.67;;;1.07;;
32790;SDS011;19143;59.322;14.502;2023-07-22T02:37:24;3.23;;;1.40;;
32790;SDS011;19143;59.322;14.502;2023-07-22T02:39:51;3.73;;;1.60;;
32790;SDS011;19143;59.322;14.502;2023-07-22T02:42:18;6.33;;;1.00;;
32790;SDS011;19143;59.322;14.502;2023-07-22T02:44:44;1.70;;;0.97;;
32790;SDS011;19143;59.322;14.502;2023-07-22T02:47:11;5.27;;;1.60;;
32790;SDS011;19143;59.322;14.502;2023-07-22T02:49:40;2.87;;;1.20;;
32790;SDS011;19143;59.322;14.502;2023-07-22T02:52:07;5.13;;;1.10;;
32790;SDS011;19143;59.322;14.502;2023-07-22T02:54:39;4.13;;;1.40;;
32790;SDS011;19143;59.322;14.502;2023-07-22T02:57:06;4.67;;;1.30;;
32790;SDS011;19143;59.322;14.502;2023-07-22T02:59:32;3.47;;;1.17;;
32790;SDS011;19143;59.322;14.502;2023-07-22T03:01:59;1.70;;;1.27;;
32790;SDS011;19143;59.322;14.502;2023-07-22T03:04:26;6.50;;;1.40;;
32790;SDS011;19143;59.322;14.502;2023-07-22T03:06:54;4.23;;;1.40;;
32790;SDS011;19143;59.322;14.502;2023-07-22T03:09:20;1.07;;;1.03;;
32790;SDS011;19143;59.322;14.502;2023-07-22T03:11:47;3.47;;;1.00;;
32790;SDS011;19143;59.322;14.502;2023-07-22T03:14:14;2.83;;;1.37;;
32790;SDS011;19143;59.322;14.502;2023-07-22T03:16:41;4.70;;;1.30;;
32790;SDS011;19143;59.322;14.502;2023-07-22T03:19:08;7.60;;;1.50;;
32790;SDS011;19143;59.322;14.502;2023-07-22T03:21:35;4.80;;;1.50;;
32790;SDS011;19143;59.322;14.502;2023-07-22T03:24:03;2.33;;;1.57;;
32790;SDS011;19143;59.322;14.502;2023-07-22T03:26:30;5.77;;;1.40;;
32790;SDS011;19143;59.322;14.502;2023-07-22T03:28:57;5.03;;;1.73;;
32790;SDS011;19143;59.322;14.502;2023-07-22T03:31:24;5.40;;;1.37;;
32790;SDS011;19143;59.322;14.502;2023-07-22T03:33:50;2.93;;;1.60;;
32790;SDS011;19143;59.322;14.502;2023-07-22T03:36:17;8.33;;;2.03;;
32790;SDS011;19143;59.322;14.502;2023-07-22T03:38:44;2.70;;;1.63;;
32790;SDS011;19143;59.322;14.502;2023-07-22T03:41:12;6.30;;;1.70;;
32790;SDS011;19143;59.322;14.502;2023-07-22T03:43:38;5.40;;;1.80;;
32790;SDS011;19143;59.322;14.502;2023-07-22T03:46:05;7.07;;;1.70;;
32790;SDS011;19143;59.322;14.502;2023-07-22T03:48:32;7.93;;;1.90;;
32790;SDS011;19143;59.322;14.502;2023-07-22T03:50:59;4.63;;;1.60;;
32790;SDS011;19143;59.322;14.502;2023-07-22T03:53:26;11.53;;;1.80;;
32790;SDS011;19143;59.322;14.502;2023-07-22T03:55:53;2.47;;;1.00;;
32790;SDS011;19143;59.322;14.502;2023-07-22T03:58:21;3.07;;;1.40;;
32790;SDS011;19143;59.322;14.502;2023-07-22T04:00:48;3.10;;;1.63;;
32790;SDS011;19143;59.322;14.502;2023-07-22T04:03:14;2.60;;;1.60;;
32790;SDS011;19143;59.322;14.502;2023-07-22T04:05:41;5.87;;;1.50;;
32790;SDS011;19143;59.322;14.502;2023-07-22T04:08:08;8.13;;;1.83;;
32790;SDS011;19143;59.322;14.502;2023-07-22T04:10:34;4.87;;;1.30;;
32790;SDS011;19143;59.322;14.502;2023-07-22T04:13:01;2.63;;;1.30;;
32790;SDS011;19143;59.322;14.502;2023-07-22T04:15:29;2.23;;;1.40;;
32790;SDS011;19143;59.322;14.502;2023-07-22T04:17:56;4.67;;;2.00;;
32790;SDS011;19143;59.322;14.502;2023-07-22T04:20:22;4.27;;;1.37;;
32790;SDS011;19143;59.322;14.502;2023-07-22T04:22:50;1.53;;;1.43;;
32790;SDS011;19143;59.322;14.502;2023-07-22T04:25:17;2.90;;;1.50;;
32790;SDS011;19143;59.322;14.502;2023-07-22T04:27:43;7.10;;;1.50;;
32790;SDS011;19143;59.322;14.502;2023-07-22T04:30:10;3.67;;;1.60;;
32790;SDS011;19143;59.322;14.502;2023-07-22T04:32:39;2.83;;;1.10;;
32790;SDS011;19143;59.322;14.502;2023-07-22T04:35:06;4.90;;;1.80;;
32790;SDS011;19143;59.322;14.502;2023-07-22T04:37:33;1.53;;;1.30;;
32790;SDS011;19143;59.322;14.502;2023-07-22T04:39:59;2.83;;;1.60;;
32790;SDS011;19143;59.322;14.502;2023-07-22T04:42:27;1.20;;;1.13;;
32790;SDS011;19143;59.322;14.502;2023-07-22T04:44:54;1.83;;;1.23;;
32790;SDS011;19143;59.322;14.502;2023-07-22T04:47:20;1.57;;;1.33;;
32790;SDS011;19143;59.322;14.502;2023-07-22T04:49:48;3.03;;;1.30;;
32790;SDS011;19143;59.322;14.502;2023-07-22T04:52:15;2.83;;;1.23;;
32790;SDS011;19143;59.322;14.502;2023-07-22T04:54:42;3.60;;;1.27;;
32790;SDS011;19143;59.322;14.502;2023-07-22T04:57:09;2.70;;;1.40;;
32790;SDS011;19143;59.322;14.502;2023-07-22T04:59:35;1.60;;;1.47;;
32790;SDS011;19143;59.322;14.502;2023-07-22T05:02:02;3.80;;;1.30;;
32790;SDS011;19143;59.322;14.502;2023-07-22T05:04:29;1.30;;;1.27;;
32790;SDS011;19143;59.322;14.502;2023-07-22T05:06:57;3.83;;;1.30;;
32790;SDS011;19143;59.322;14.502;2023-07-22T05:09:24;3.17;;;1.40;;
32790;SDS011;19143;59.322;14.502;2023-07-22T05:11:50;5.20;;;1.50;;
32790;SDS011;19143;59.322;14.502;2023-07-22T05:14:17;2.40;;;1.10;;
32790;SDS011;19143;59.322;14.502;2023-07-22T05:16:44;5.03;;;1.60;;
32790;SDS011;19143;59.322;14.502;2023-07-22T05:19:10;2.03;;;1.20;;
32790;SDS011;19143;59.322;14.502;2023-07-22T05:21:37;5.77;;;1.67;;
32790;SDS011;19143;59.322;14.502;2023-07-22T05:24:05;4.60;;;1.47;;
32790;SDS011;19143;59.322;14.502;2023-07-22T05:26:32;2.90;;;1.43;;
32790;SDS011;19143;59.322;14.502;2023-07-22T05:28:58;7.30;;;1.40;;
32790;SDS011;19143;59.322;14.502;2023-07-22T05:31:25;2.60;;;1.80;;
32790;SDS011;19143;59.322;14.502;2023-07-22T05:33:52;5.33;;;1.20;;
32790;SDS011;19143;59.322;14.502;2023-07-22T05:36:18;1.27;;;1.10;;
32790;SDS011;19143;59.322;14.502;2023-07-22T05:38:45;6.87;;;1.40;;
32790;SDS011;19143;59.322;14.502;2023-07-22T05:41:13;3.30;;;1.53;;
32790;SDS011;19143;59.322;14.502;2023-07-22T05:43:40;4.97;;;1.50;;
32790;SDS011;19143;59.322;14.502;2023-07-22T05:46:07;6.03;;;2.13;;
32790;SDS011;19143;59.322;14.502;2023-07-22T05:48:33;5.00;;;1.23;;
32790;SDS011;19143;59.322;14.502;2023-07-22T05:51:00;5.10;;;1.60;;
32790;SDS011;19143;59.322;14.502;2023-07-22T05:53:27;3.83;;;1.50;;
32790;SDS011;19143;59.322;14.502;2023-07-22T05:55:54;2.53;;;1.40;;
32790;SDS011;19143;59.322;14.502;2023-07-22T05:58:22;8.97;;;1.70;;
32790;SDS011;19143;59.322;14.502;2023-07-22T06:00:48;9.00;;;1.80;;
32790;SDS011;19143;59.322;14.502;2023-07-22T06:03:16;3.93;;;1.30;;
32790;SDS011;19143;59.322;14.502;2023-07-22T06:05:43;5.83;;;1.73;;
32790;SDS011;19143;59.322;14.502;2023-07-22T06:08:10;3.20;;;1.20;;
32790;SDS011;19143;59.322;14.502;2023-07-22T06:10:36;2.47;;;1.57;;
32790;SDS011;19143;59.322;14.502;2023-07-22T06:13:03;8.33;;;1.87;;
32790;SDS011;19143;59.322;14.502;2023-07-22T06:15:31;2.90;;;1.47;;
32790;SDS011;19143;59.322;14.502;2023-07-22T06:17:59;2.37;;;1.40;;
32790;SDS011;19143;59.322;14.502;2023-07-22T06:20:27;2.87;;;1.33;;
32790;SDS011;19143;59.322;14.502;2023-07-22T06:22:54;2.37;;;1.50;;
32790;SDS011;19143;59.322;14.502;2023-07-22T06:25:23;1.83;;;1.20;;
32790;SDS011;19143;59.322;14.502;2023-07-22T06:27:50;1.93;;;1.40;;
32790;SDS011;19143;59.322;14.502;2023-07-22T06:30:19;2.40;;;1.47;;
32790;SDS011;19143;59.322;14.502;2023-07-22T06:32:47;1.37;;;0.97;;
32790;SDS011;19143;59.322;14.502;2023-07-22T06:35:13;2.20;;;1.10;;
32790;SDS011;19143;59.322;14.502;2023-07-22T06:37:40;3.50;;;1.50;;
32790;SDS011;19143;59.322;14.502;2023-07-22T06:40:14;1.50;;;1.10;;
32790;SDS011;19143;59.322;14.502;2023-07-22T06:42:42;1.40;;;1.30;;
32790;SDS011;19143;59.322;14.502;2023-07-22T06:45:08;1.43;;;1.10;;
32790;SDS011;19143;59.322;14.502;2023-07-22T06:47:35;3.00;;;1.03;;
32790;SDS011;19143;59.322;14.502;2023-07-22T06:50:03;1.70;;;1.10;;
32790;SDS011;19143;59.322;14.502;2023-07-22T06:52:30;1.10;;;0.80;;
32790;SDS011;19143;59.322;14.502;2023-07-22T06:54:57;2.47;;;1.10;;
32790;SDS011;19143;59.322;14.502;2023-07-22T06:57:23;0.87;;;0.87;;
32790;SDS011;19143;59.322;14.502;2023-07-22T06:59:56;1.70;;;0.80;;
32790;SDS011;19143;59.322;14.502;2023-07-22T07:02:25;0.77;;;0.77;;
32790;SDS011;19143;59.322;14.502;2023-07-22T07:04:52;1.47;;;0.83;;
32790;SDS011;19143;59.322;14.502;2023-07-22T07:07:20;1.00;;;0.90;;
32790;SDS011;19143;59.322;14.502;2023-07-22T07:09:47;1.23;;;1.10;;
32790;SDS011;19143;59.322;14.502;2023-07-22T07:12:13;1.60;;;0.80;;
32790;SDS011;19143;59.322;14.502;2023-07-22T07:14:40;0.93;;;0.70;;
32790;SDS011;19143;59.322;14.502;2023-07-22T07:17:07;1.17;;;0.70;;
32790;SDS011;19143;59.322;14.502;2023-07-22T07:19:34;3.33;;;0.97;;
32790;SDS011;19143;59.322;14.502;2023-07-22T07:22:01;2.17;;;0.97;;
32790;SDS011;19143;59.322;14.502;2023-07-22T07:24:32;1.47;;;0.93;;
32790;SDS011;19143;59.322;14.502;2023-07-22T07:27:04;1.43;;;0.90;;
32790;SDS011;19143;59.322;14.502;2023-07-22T07:29:30;1.53;;;0.70;;
32790;SDS011;19143;59.322;14.502;2023-07-22T07:31:57;1.30;;;0.90;;
32790;SDS011;19143;59.322;14.502;2023-07-22T07:34:24;0.83;;;0.70;;
32790;SDS011;19143;59.322;14.502;2023-07-22T07:36:51;0.83;;;0.80;;
32790;SDS011;19143;59.322;14.502;2023-07-22T07:39:17;0.70;;;0.70;;
32790;SDS011;19143;59.322;14.502;2023-07-22T07:41:45;1.50;;;0.60;;
32790;SDS011;19143;59.322;14.502;2023-07-22T07:44:12;0.73;;;0.70;;
32790;SDS011;19143;59.322;14.502;2023-07-22T07:46:38;0.93;;;0.87;;
32790;SDS011;19143;59.322;14.502;2023-07-22T07:49:06;2.53;;;0.50;;
32790;SDS011;19143;59.322;14.502;2023-07-22T07:51:32;0.60;;;0.60;;
32790;SDS011;19143;59.322;14.502;2023-07-22T07:53:59;5.50;;;0.93;;
32790;SDS011;19143;59.322;14.502;2023-07-22T07:56:29;2.20;;;0.70;;
32790;SDS011;19143;59.322;14.502;2023-07-22T07:58:57;1.03;;;0.70;;
32790;SDS011;19143;59.322;14.502;2023-07-22T08:01:24;3.63;;;1.00;;
32790;SDS011;19143;59.322;14.502;2023-07-22T08:03:50;1.07;;;0.70;;
32790;SDS011;19143;59.322;14.502;2023-07-22T08:06:17;2.67;;;0.70;;
32790;SDS011;19143;59.322;14.502;2023-07-22T08:08:44;1.20;;;0.80;;
32790;SDS011;19143;59.322;14.502;2023-07-22T08:11:11;1.60;;;0.70;;
32790;SDS011;19143;59.322;14.502;2023-07-22T08:13:41;0.73;;;0.70;;
32790;SDS011;19143;59.322;14.502;2023-07-22T08:16:10;1.40;;;0.83;;
32790;SDS011;19143;59.322;14.502;2023-07-22T08:18:37;1.47;;;0.80;;
32790;SDS011;19143;59.322;14.502;2023-07-22T08:21:03;1.70;;;0.80;;
32790;SDS011;19143;59.322;14.502;2023-07-22T08:23:32;2.20;;;0.70;;
32790;SDS011;19143;59.322;14.502;2023-07-22T08:25:58;1.67;;;1.00;;
32790;SDS011;19143;59.322;14.502;2023-07-22T08:28:32;5.23;;;0.73;;
32790;SDS011;19143;59.322;14.502;2023-07-22T08:30:59;2.70;;;1.00;;
32790;SDS011;19143;59.322;14.502;2023-07-22T08:33:28;2.07;;;0.80;;
32790;SDS011;19143;59.322;14.502;2023-07-22T08:35:54;4.30;;;0.90;;
32790;SDS011;19143;59.322;14.502;2023-07-22T08:38:21;0.77;;;0.77;;
32790;SDS011;19143;59.322;14.502;2023-07-22T08:40:48;0.77;;;0.70;;
32790;SDS011;19143;59.322;14.502;2023-07-22T08:43:18;2.57;;;0.93;;
32790;SDS011;19143;59.322;14.502;2023-07-22T08:45:47;2.93;;;0.80;;
32790;SDS011;19143;59.322;14.502;2023-07-22T08:48:14;0.70;;;0.70;;
32790;SDS011;19143;59.322;14.502;2023-07-22T08:50:45;1.93;;;0.80;;
32790;SDS011;19143;59.322;14.502;2023-07-22T08:53:12;1.00;;;0.80;;
32790;SDS011;19143;59.322;14.502;2023-07-22T08:55:39;0.60;;;0.60;;
32790;SDS011;19143;59.322;14.502;2023-07-22T08:58:07;1.90;;;0.60;;
32790;SDS011;19143;59.322;14.502;2023-07-22T09:00:34;3.00;;;0.80;;
32790;SDS011;19143;59.322;14.502;2023-07-22T09:03:01;2.00;;;0.60;;
32790;SDS011;19143;59.322;14.502;2023-07-22T09:05:28;1.33;;;1.10;;
32790;SDS011;19143;59.322;14.502;2023-07-22T09:07:58;0.67;;;0.67;;
32790;SDS011;19143;59.322;14.502;2023-07-22T09:10:31;2.67;;;0.90;;
32790;SDS011;19143;59.322;14.502;2023-07-22T09:13:16;2.97;;;1.00;;
32790;SDS011;19143;59.322;14.502;2023-07-22T09:15:44;4.40;;;1.07;;
32790;SDS011;19143;59.322;14.502;2023-07-22T09:18:12;0.77;;;0.70;;
32790;SDS011;19143;59.322;14.502;2023-07-22T09:20:40;1.03;;;1.03;;
32790;SDS011;19143;59.322;14.502;2023-07-22T09:23:09;0.80;;;0.73;;
32790;SDS011;19143;59.322;14.502;2023-07-22T09:25:36;1.83;;;0.90;;
32790;SDS011;19143;59.322;14.502;2023-07-22T09:28:08;1.50;;;0.83;;
32790;SDS011;19143;59.322;14.502;2023-07-22T09:30:35;0.70;;;0.70;;
32790;SDS011;19143;59.322;14.502;2023-07-22T09:33:04;3.20;;;0.97;;
32790;SDS011;19143;59.322;14.502;2023-07-22T09:35:31;0.87;;;0.87;;
32790;SDS011;19143;59.322;14.502;2023-07-22T09:38:11;0.87;;;0.87;;
32790;SDS011;19143;59.322;14.502;2023-07-22T09:40:39;2.17;;;0.90;;
32790;SDS011;19143;59.322;14.502;2023-07-22T09:43:09;0.93;;;0.70;;
32790;SDS011;19143;59.322;14.502;2023-07-22T09:45:35;1.20;;;0.90;;
32790;SDS011;19143;59.322;14.502;2023-07-22T09:48:03;1.90;;;0.93;;
32790;SDS011;19143;59.322;14.502;2023-07-22T09:50:29;4.07;;;1.20;;
32790;SDS011;19143;59.322;14.502;2023-07-22T09:52:56;2.83;;;1.00;;
32790;SDS011;19143;59.322;14.502;2023-07-22T09:55:26;3.43;;;0.90;;
32790;SDS011;19143;59.322;14.502;2023-07-22T09:57:55;1.43;;;1.10;;
32790;SDS011;19143;59.322;14.502;2023-07-22T10:00:23;1.17;;;0.90;;
32790;SDS011;19143;59.322;14.502;2023-07-22T10:02:51;0.80;;;0.80;;
32790;SDS011;19143;59.322;14.502;2023-07-22T10:05:18;0.83;;;0.83;;
32790;SDS011;19143;59.322;14.502;2023-07-22T10:07:45;0.90;;;0.90;;
32790;SDS011;19143;59.322;14.502;2023-07-22T10:10:12;1.13;;;1.03;;
32790;SDS011;19143;59.322;14.502;2023-07-22T10:12:42;1.07;;;0.70;;
32790;SDS011;19143;59.322;14.502;2023-07-22T10:15:10;4.67;;;0.90;;
32790;SDS011;19143;59.322;14.502;2023-07-22T10:17:37;2.13;;;0.70;;
32790;SDS011;19143;59.322;14.502;2023-07-22T10:20:04;2.83;;;0.90;;
32790;SDS011;19143;59.322;14.502;2023-07-22T10:22:33;1.23;;;0.70;;
32790;SDS011;19143;59.322;14.502;2023-07-22T10:25:01;0.67;;;0.67;;
32790;SDS011;19143;59.322;14.502;2023-07-22T10:27:28;0.90;;;0.90;;
32790;SDS011;19143;59.322;14.502;2023-07-22T10:29:56;1.13;;;1.00;;
32790;SDS011;19143;59.322;14.502;2023-07-22T10:32:23;0.87;;;0.87;;
32790;SDS011;19143;59.322;14.502;2023-07-22T10:34:49;0.93;;;0.80;;
32790;SDS011;19143;59.322;14.502;2023-07-22T10:37:17;1.57;;;0.80;;
32790;SDS011;19143;59.322;14.502;2023-07-22T10:39:44;3.07;;;0.80;;
32790;SDS011;19143;59.322;14.502;2023-07-22T10:42:17;0.70;;;0.67;;
32790;SDS011;19143;59.322;14.502;2023-07-22T10:44:50;0.73;;;0.67;;
32790;SDS011;19143;59.322;14.502;2023-07-22T10:47:31;0.70;;;0.50;;
32790;SDS011;19143;59.322;14.502;2023-07-22T10:49:58;1.10;;;0.70;;
32790;SDS011;19143;59.322;14.502;2023-07-22T10:52:38;2.23;;;0.90;;
32790;SDS011;19143;59.322;14.502;2023-07-22T10:55:13;1.60;;;0.60;;
32790;SDS011;19143;59.322;14.502;2023-07-22T10:57:47;2.90;;;0.87;;
32790;SDS011;19143;59.322;14.502;2023-07-22T11:00:17;0.60;;;0.60;;
32790;SDS011;19143;59.322;14.502;2023-07-22T11:02:46;1.27;;;1.03;;
32790;SDS011;19143;59.322;14.502;2023-07-22T11:05:13;0.90;;;0.90;;
32790;SDS011;19143;59.322;14.502;2023-07-22T11:07:43;0.93;;;0.77;;
32790;SDS011;19143;59.322;14.502;2023-07-22T11:10:13;4.03;;;0.70;;
32790;SDS011;19143;59.322;14.502;2023-07-22T11:12:42;0.60;;;0.60;;
32790;SDS011;19143;59.322;14.502;2023-07-22T11:15:09;1.43;;;0.90;;
32790;SDS011;19143;59.322;14.502;2023-07-22T11:17:35;3.93;;;0.80;;
32790;SDS011;19143;59.322;14.502;2023-07-22T11:20:07;1.23;;;0.90;;
32790;SDS011;19143;59.322;14.502;2023-07-22T11:22:33;0.80;;;0.80;;
32790;SDS011;19143;59.322;14.502;2023-07-22T11:25:00;0.60;;;0.60;;
32790;SDS011;19143;59.322;14.502;2023-07-22T11:27:28;1.20;;;0.70;;
32790;SDS011;19143;59.322;14.502;2023-07-22T11:29:56;0.60;;;0.60;;
32790;SDS011;19143;59.322;14.502;2023-07-22T11:32:23;0.73;;;0.50;;
32790;SDS011;19143;59.322;14.502;2023-07-22T11:34:51;2.30;;;0.63;;
32790;SDS011;19143;59.322;14.502;2023-07-22T11:37:19;1.20;;;0.77;;
32790;SDS011;19143;59.322;14.502;2023-07-22T11:39:46;1.30;;;0.67;;
32790;SDS011;19143;59.322;14.502;2023-07-22T11:42:13;0.83;;;0.83;;
32790;SDS011;19143;59.322;14.502;2023-07-22T11:44:39;2.00;;;0.67;;
32790;SDS011;19143;59.322;14.502;2023-07-22T11:47:07;0.70;;;0.70;;
32790;SDS011;19143;59.322;14.502;2023-07-22T11:49:34;3.03;;;0.60;;
32790;SDS011;19143;59.322;14.502;2023-07-22T11:52:02;1.70;;;0.63;;
32790;SDS011;19143;59.322;14.502;2023-07-22T11:54:33;0.70;;;0.70;;
32790;SDS011;19143;59.322;14.502;2023-07-22T11:57:09;1.83;;;1.00;;
32790;SDS011;19143;59.322;14.502;2023-07-22T11:59:36;0.70;;;0.70;;
32790;SDS011;19143;59.322;14.502;2023-07-22T12:02:03;0.80;;;0.80;;
32790;SDS011;19143;59.322;14.502;2023-07-22T12:04:31;1.80;;;0.70;;
32790;SDS011;19143;59.322;14.502;2023-07-22T12:06:57;2.23;;;0.70;;
32790;SDS011;19143;59.322;14.502;2023-07-22T12:09:24;1.23;;;0.80;;
32790;SDS011;19143;59.322;14.502;2023-07-22T12:11:56;0.80;;;0.60;;
32790;SDS011;19143;59.322;14.502;2023-07-22T12:14:24;0.83;;;0.77;;
32790;SDS011;19143;59.322;14.502;2023-07-22T12:16:52;1.70;;;0.87;;
32790;SDS011;19143;59.322;14.502;2023-07-22T12:19:19;0.77;;;0.73;;
32790;SDS011;19143;59.322;14.502;2023-07-22T12:21:52;0.60;;;0.60;;
32790;SDS011;19143;59.322;14.502;2023-07-22T12:24:19;0.77;;;0.67;;
32790;SDS011;19143;59.322;14.502;2023-07-22T12:26:45;1.27;;;0.70;;
32790;SDS011;19143;59.322;14.502;2023-07-22T12:29:13;1.70;;;0.80;;
32790;SDS011;19143;59.322;14.502;2023-07-22T12:31:40;0.90;;;0.90;;
32790;SDS011;19143;59.322;14.502;2023-07-22T12:34:07;1.60;;;0.60;;
32790;SDS011;19143;59.322;14.502;2023-07-22T12:36:33;0.60;;;0.60;;
32790;SDS011;19143;59.322;14.502;2023-07-22T12:39:00;1.60;;;0.87;;
32790;SDS011;19143;59.322;14.502;2023-07-22T12:41:28;1.27;;;0.70;;
32790;SDS011;19143;59.322;14.502;2023-07-22T12:43:54;1.13;;;1.03;;
32790;SDS011;19143;59.322;14.502;2023-07-22T12:46:22;0.63;;;0.63;;
32790;SDS011;19143;59.322;14.502;2023-07-22T12:48:49;0.70;;;0.70;;
32790;SDS011;19143;59.322;14.502;2023-07-22T12:51:17;2.33;;;1.00;;
32790;SDS011;19143;59.322;14.502;2023-07-22T12:53:44;4.13;;;0.70;;
32790;SDS011;19143;59.322;14.502;2023-07-22T12:56:21;0.70;;;0.60;;
32790;SDS011;19143;59.322;14.502;2023-07-22T12:58:48;0.67;;;0.67;;
32790;SDS011;19143;59.322;14.502;2023-07-22T13:01:15;2.00;;;1.00;;
32790;SDS011;19143;59.322;14.502;2023-07-22T13:03:43;0.90;;;0.90;;
32790;SDS011;19143;59.322;14.502;2023-07-22T13:06:10;0.80;;;0.80;;
32790;SDS011;19143;59.322;14.502;2023-07-22T13:08:43;0.60;;;0.60;;
32790;SDS011;19143;59.322;14.502;2023-07-22T13:11:10;0.73;;;0.73;;
32790;SDS011;19143;59.322;14.502;2023-07-22T13:13:37;0.73;;;0.73;;
32790;SDS011;19143;59.322;14.502;2023-07-22T13:16:04;0.60;;;0.60;;
32790;SDS011;19143;59.322;14.502;2023-07-22T13:18:31;0.97;;;0.80;;
32790;SDS011;19143;59.322;14.502;2023-07-22T13:20:59;1.03;;;0.77;;
32790;SDS011;19143;59.322;14.502;2023-07-22T13:23:25;1.70;;;0.90;;
32790;SDS011;19143;59.322;14.502;2023-07-22T13:25:52;0.80;;;0.80;;
32790;SDS011;19143;59.322;14.502;2023-07-22T13:28:19;0.70;;;0.60;;
32790;SDS011;19143;59.322;14.502;2023-07-22T13:30:45;0.80;;;0.80;;
32790;SDS011;19143;59.322;14.502;2023-07-22T13:33:13;0.60;;;0.60;;
32790;SDS011;19143;59.322;14.502;2023-07-22T13:35:39;0.97;;;0.80;;
32790;SDS011;19143;59.322;14.502;2023-07-22T13:38:08;0.70;;;0.70;;
32790;SDS011;19143;59.322;14.502;2023-07-22T13:40:35;1.47;;;1.00;;
32790;SDS011;19143;59.322;14.502;2023-07-22T13:43:01;0.70;;;0.70;;
32790;SDS011;19143;59.322;14.502;2023-07-22T13:45:28;0.60;;;0.60;;
32790;SDS011;19143;59.322;14.502;2023-07-22T13:47:55;0.57;;;0.57;;
32790;SDS011;19143;59.322;14.502;2023-07-22T13:50:21;1.60;;;0.70;;
32790;SDS011;19143;59.322;14.502;2023-07-22T13:52:48;1.50;;;0.77;;
32790;SDS011;19143;59.322;14.502;2023-07-22T13:55:16;0.77;;;0.70;;
32790;SDS011;19143;59.322;14.502;2023-07-22T13:57:43;0.70;;;0.70;;
32790;SDS011;19143;59.322;14.502;2023-07-22T14:00:11;0.50;;;0.50;;
32790;SDS011;19143;59.322;14.502;2023-07-22T14:02:39;1.50;;;0.60;;
32790;SDS011;19143;59.322;14.502;2023-07-22T14:05:06;1.20;;;0.80;;
32790;SDS011;19143;59.322;14.502;2023-07-22T14:07:33;0.60;;;0.60;;
32790;SDS011;19143;59.322;14.502;2023-07-22T14:09:59;1.57;;;0.77;;
32790;SDS011;19143;59.322;14.502;2023-07-22T14:12:28;0.70;;;0.70;;
32790;SDS011;19143;59.322;14.502;2023-07-22T14:14:55;2.10;;;0.90;;
32790;SDS011;19143;59.322;14.502;2023-07-22T14:17:21;1.17;;;0.70;;
32790;SDS011;19143;59.322;14.502;2023-07-22T14:19:49;3.17;;;1.20;;
32790;SDS011;19143;59.322;14.502;2023-07-22T14:22:16;1.30;;;0.80;;
32790;SDS011;19143;59.322;14.502;2023-07-22T14:24:43;2.17;;;0.60;;
32790;SDS011;19143;59.322;14.502;2023-07-22T14:27:10;0.80;;;0.70;;
32790;SDS011;19143;59.322;14.502;2023-07-22T14:29:38;1.00;;;0.90;;
32790;SDS011;19143;59.322;14.502;2023-07-22T14:32:05;2.23;;;0.80;;
32790;SDS011;19143;59.322;14.502;2023-07-22T14:34:32;2.53;;;0.93;;